sensor_id;sensor_type;location;lat;lon;timestamp;P1;durP1;ratioP1;P2;durP2;ratioP2
47481;SDS011;33219;47.410;9.730;2023-04-19T00:02:18;9.08;;;6.40;;
47481;SDS011;33219;47.410;9.730;2023-04-19T00:04:45;10.95;;;6.47;;
47481;SDS011;33219;47.410;9.730;2023-04-19T00:07:13;12.05;;;8.50;;
47481;SDS011;33219;47.410;9.730;2023-04-19T00:09:41;11.43;;;7.70;;
47481;SDS011;33219;47.410;9.730;2023-04-19T00:12:09;10.82;;;7.25;;
47481;SDS011;33219;47.410;9.730;2023-04-19T00:14:37;11.45;;;7.37;;
47481;SDS011;33219;47.410;9.730;2023-04-19T00:17:04;11.68;;;7.33;;
47481;SDS011;33219;47.410;9.730;2023-04-19T00:19:32;8.93;;;6.42;;
47481;SDS011;33219;47.410;9.730;2023-04-19T00:21:59;10.23;;;6.55;;
47481;SDS011;33219;47.410;9.730;2023-04-19T00:24:27;7.97;;;5.50;;
47481;SDS011;33219;47.410;9.730;2023-04-19T00:26:55;8.70;;;5.58;;
47481;SDS011;33219;47.410;9.730;2023-04-19T00:29:23;9.58;;;5.70;;
47481;SDS011;33219;47.410;9.730;2023-04-19T00:31:51;8.43;;;5.55;;
47481;SDS011;33219;47.410;9.730;2023-04-19T00:34:19;8.73;;;5.85;;
47481;SDS011;33219;47.410;9.730;2023-04-19T00:36:46;9.30;;;6.35;;
47481;SDS011;33219;47.410;9.730;2023-04-19T00:39:14;7.47;;;5.37;;
47481;SDS011;33219;47.410;9.730;2023-04-19T00:41:42;6.78;;;5.10;;
47481;SDS011;33219;47.410;9.730;2023-04-19T00:44:10;7.25;;;5.20;;
47481;SDS011;33219;47.410;9.730;2023-04-19T00:46:37;9.08;;;5.47;;
47481;SDS011;33219;47.410;9.730;2023-04-19T00:49:05;7.60;;;5.53;;
47481;SDS011;33219;47.410;9.730;2023-04-19T00:51:33;7.95;;;5.55;;
47481;SDS011;33219;47.410;9.730;2023-04-19T00:54:02;7.65;;;5.00;;
47481;SDS011;33219;47.410;9.730;2023-04-19T00:56:29;7.28;;;5.40;;
47481;SDS011;33219;47.410;9.730;2023-04-19T00:58:59;9.98;;;6.80;;
47481;SDS011;33219;47.410;9.730;2023-04-19T01:01:27;9.63;;;6.30;;
47481;SDS011;33219;47.410;9.730;2023-04-19T01:03:55;8.90;;;5.75;;
47481;SDS011;33219;47.410;9.730;2023-04-19T01:06:22;8.38;;;5.85;;
47481;SDS011;33219;47.410;9.730;2023-04-19T01:08:52;10.18;;;5.80;;
47481;SDS011;33219;47.410;9.730;2023-04-19T01:11:23;11.08;;;6.85;;
47481;SDS011;33219;47.410;9.730;2023-04-19T01:13:51;13.15;;;8.60;;
47481;SDS011;33219;47.410;9.730;2023-04-19T01:16:18;11.78;;;7.75;;
47481;SDS011;33219;47.410;9.730;2023-04-19T01:18:46;11.43;;;7.70;;
47481;SDS011;33219;47.410;9.730;2023-04-19T01:21:14;14.05;;;8.80;;
47481;SDS011;33219;47.410;9.730;2023-04-19T01:23:42;13.70;;;8.68;;
47481;SDS011;33219;47.410;9.730;2023-04-19T01:26:09;13.50;;;8.43;;
47481;SDS011;33219;47.410;9.730;2023-04-19T01:28:37;14.13;;;8.85;;
47481;SDS011;33219;47.410;9.730;2023-04-19T01:31:04;13.05;;;9.10;;
47481;SDS011;33219;47.410;9.730;2023-04-19T01:33:32;13.62;;;9.55;;
47481;SDS011;33219;47.410;9.730;2023-04-19T01:35:59;14.33;;;9.70;;
47481;SDS011;33219;47.410;9.730;2023-04-19T01:38:27;14.60;;;8.75;;
47481;SDS011;33219;47.410;9.730;2023-04-19T01:40:55;11.70;;;8.43;;
47481;SDS011;33219;47.410;9.730;2023-04-19T01:43:23;12.65;;;8.35;;
47481;SDS011;33219;47.410;9.730;2023-04-19T01:45:50;16.67;;;9.50;;
47481;SDS011;33219;47.410;9.730;2023-04-19T01:48:18;16.57;;;10.08;;
47481;SDS011;33219;47.410;9.730;2023-04-19T01:50:46;14.87;;;9.85;;
47481;SDS011;33219;47.410;9.730;2023-04-19T01:53:13;16.23;;;10.20;;
47481;SDS011;33219;47.410;9.730;2023-04-19T01:55:41;16.15;;;10.55;;
47481;SDS011;33219;47.410;9.730;2023-04-19T01:58:08;15.53;;;9.98;;
47481;SDS011;33219;47.410;9.730;2023-04-19T02:00:36;16.35;;;10.40;;
47481;SDS011;33219;47.410;9.730;2023-04-19T02:03:04;18.37;;;10.80;;
47481;SDS011;33219;47.410;9.730;2023-04-19T02:05:31;17.32;;;10.58;;
47481;SDS011;33219;47.410;9.730;2023-04-19T02:07:59;15.70;;;10.68;;
47481;SDS011;33219;47.410;9.730;2023-04-19T02:10:27;16.60;;;10.95;;
47481;SDS011;33219;47.410;9.730;2023-04-19T02:12:55;16.40;;;10.90;;
47481;SDS011;33219;47.410;9.730;2023-04-19T02:15:22;16.77;;;10.60;;
47481;SDS011;33219;47.410;9.730;2023-04-19T02:17:50;16.17;;;10.72;;
47481;SDS011;33219;47.410;9.730;2023-04-19T02:20:18;16.87;;;11.00;;
47481;SDS011;33219;47.410;9.730;2023-04-19T02:22:45;16.42;;;10.98;;
47481;SDS011;33219;47.410;9.730;2023-04-19T02:25:13;19.12;;;11.57;;
47481;SDS011;33219;47.410;9.730;2023-04-19T02:27:41;17.60;;;11.50;;
47481;SDS011;33219;47.410;9.730;2023-04-19T02:30:09;16.73;;;10.88;;
47481;SDS011;33219;47.410;9.730;2023-04-19T02:32:37;16.02;;;10.45;;
47481;SDS011;33219;47.410;9.730;2023-04-19T02:35:04;15.72;;;10.53;;
47481;SDS011;33219;47.410;9.730;2023-04-19T02:37:32;16.90;;;10.68;;
47481;SDS011;33219;47.410;9.730;2023-04-19T02:40:00;16.48;;;11.05;;
47481;SDS011;33219;47.410;9.730;2023-04-19T02:42:28;17.05;;;10.58;;
47481;SDS011;33219;47.410;9.730;2023-04-19T02:44:56;17.05;;;10.90;;
47481;SDS011;33219;47.410;9.730;2023-04-19T02:47:23;15.43;;;9.80;;
47481;SDS011;33219;47.410;9.730;2023-04-19T02:49:51;18.67;;;11.25;;
47481;SDS011;33219;47.410;9.730;2023-04-19T02:52:18;19.12;;;12.00;;
47481;SDS011;33219;47.410;9.730;2023-04-19T02:54:46;16.85;;;10.45;;
47481;SDS011;33219;47.410;9.730;2023-04-19T02:57:14;18.15;;;10.95;;
47481;SDS011;33219;47.410;9.730;2023-04-19T02:59:42;16.60;;;10.38;;
47481;SDS011;33219;47.410;9.730;2023-04-19T03:02:09;16.65;;;10.43;;
47481;SDS011;33219;47.410;9.730;2023-04-19T03:04:38;16.40;;;10.58;;
47481;SDS011;33219;47.410;9.730;2023-04-19T03:07:07;16.15;;;9.90;;
47481;SDS011;33219;47.410;9.730;2023-04-19T03:09:35;16.93;;;10.25;;
47481;SDS011;33219;47.410;9.730;2023-04-19T03:12:03;19.20;;;11.55;;
47481;SDS011;33219;47.410;9.730;2023-04-19T03:14:31;16.65;;;10.48;;
47481;SDS011;33219;47.410;9.730;2023-04-19T03:17:01;15.95;;;10.90;;
47481;SDS011;33219;47.410;9.730;2023-04-19T03:19:29;16.82;;;10.78;;
47481;SDS011;33219;47.410;9.730;2023-04-19T03:21:57;15.88;;;10.28;;
47481;SDS011;33219;47.410;9.730;2023-04-19T03:24:28;15.13;;;9.83;;
47481;SDS011;33219;47.410;9.730;2023-04-19T03:26:57;14.03;;;9.28;;
47481;SDS011;33219;47.410;9.730;2023-04-19T03:29:24;15.18;;;9.30;;
47481;SDS011;33219;47.410;9.730;2023-04-19T03:31:52;14.80;;;9.40;;
47481;SDS011;33219;47.410;9.730;2023-04-19T03:34:19;13.00;;;8.48;;
47481;SDS011;33219;47.410;9.730;2023-04-19T03:36:47;15.18;;;8.55;;
47481;SDS011;33219;47.410;9.730;2023-04-19T03:39:14;16.02;;;9.23;;
47481;SDS011;33219;47.410;9.730;2023-04-19T03:41:42;12.68;;;8.35;;
47481;SDS011;33219;47.410;9.730;2023-04-19T03:44:10;13.90;;;9.65;;
47481;SDS011;33219;47.410;9.730;2023-04-19T03:46:37;14.80;;;9.43;;
47481;SDS011;33219;47.410;9.730;2023-04-19T03:49:05;13.62;;;8.75;;
47481;SDS011;33219;47.410;9.730;2023-04-19T03:51:33;14.10;;;9.08;;
47481;SDS011;33219;47.410;9.730;2023-04-19T03:54:00;12.33;;;8.20;;
47481;SDS011;33219;47.410;9.730;2023-04-19T03:56:28;13.62;;;8.50;;
47481;SDS011;33219;47.410;9.730;2023-04-19T03:58:56;9.10;;;5.75;;
47481;SDS011;33219;47.410;9.730;2023-04-19T04:01:23;6.97;;;5.10;;
47481;SDS011;33219;47.410;9.730;2023-04-19T04:03:51;8.68;;;5.47;;
47481;SDS011;33219;47.410;9.730;2023-04-19T04:06:19;9.88;;;6.08;;
47481;SDS011;33219;47.410;9.730;2023-04-19T04:08:46;9.33;;;6.30;;
47481;SDS011;33219;47.410;9.730;2023-04-19T04:11:14;9.33;;;5.55;;
47481;SDS011;33219;47.410;9.730;2023-04-19T04:13:41;8.15;;;5.00;;
47481;SDS011;33219;47.410;9.730;2023-04-19T04:16:11;9.53;;;5.37;;
47481;SDS011;33219;47.410;9.730;2023-04-19T04:18:38;11.10;;;7.33;;
47481;SDS011;33219;47.410;9.730;2023-04-19T04:21:06;14.13;;;8.60;;
47481;SDS011;33219;47.410;9.730;2023-04-19T04:23:33;14.65;;;9.10;;
47481;SDS011;33219;47.410;9.730;2023-04-19T04:26:02;15.45;;;10.23;;
47481;SDS011;33219;47.410;9.730;2023-04-19T04:28:30;16.73;;;10.45;;
47481;SDS011;33219;47.410;9.730;2023-04-19T04:30:58;16.95;;;10.35;;
47481;SDS011;33219;47.410;9.730;2023-04-19T04:33:26;17.25;;;10.08;;
47481;SDS011;33219;47.410;9.730;2023-04-19T04:35:54;19.67;;;10.75;;
47481;SDS011;33219;47.410;9.730;2023-04-19T04:38:23;19.12;;;11.30;;
47481;SDS011;33219;47.410;9.730;2023-04-19T04:40:52;16.45;;;10.95;;
47481;SDS011;33219;47.410;9.730;2023-04-19T04:43:20;19.50;;;11.75;;
47481;SDS011;33219;47.410;9.730;2023-04-19T04:45:49;17.48;;;10.28;;
47481;SDS011;33219;47.410;9.730;2023-04-19T04:48:17;21.00;;;11.75;;
47481;SDS011;33219;47.410;9.730;2023-04-19T04:50:44;18.90;;;11.03;;
47481;SDS011;33219;47.410;9.730;2023-04-19T04:53:12;18.10;;;11.50;;
47481;SDS011;33219;47.410;9.730;2023-04-19T04:55:39;17.77;;;11.50;;
47481;SDS011;33219;47.410;9.730;2023-04-19T04:58:07;18.00;;;11.35;;
47481;SDS011;33219;47.410;9.730;2023-04-19T05:00:35;17.32;;;11.18;;
47481;SDS011;33219;47.410;9.730;2023-04-19T05:03:02;16.05;;;10.18;;
47481;SDS011;33219;47.410;9.730;2023-04-19T05:05:31;16.07;;;10.90;;
47481;SDS011;33219;47.410;9.730;2023-04-19T05:07:58;17.30;;;11.33;;
47481;SDS011;33219;47.410;9.730;2023-04-19T05:10:26;17.40;;;10.80;;
47481;SDS011;33219;47.410;9.730;2023-04-19T05:12:54;18.42;;;11.10;;
47481;SDS011;33219;47.410;9.730;2023-04-19T05:15:21;13.40;;;10.10;;
47481;SDS011;33219;47.410;9.730;2023-04-19T05:17:49;16.00;;;10.30;;
47481;SDS011;33219;47.410;9.730;2023-04-19T05:20:16;17.73;;;10.43;;
47481;SDS011;33219;47.410;9.730;2023-04-19T05:22:44;20.08;;;11.53;;
47481;SDS011;33219;47.410;9.730;2023-04-19T05:25:12;14.73;;;9.88;;
47481;SDS011;33219;47.410;9.730;2023-04-19T05:27:39;16.05;;;10.20;;
47481;SDS011;33219;47.410;9.730;2023-04-19T05:30:10;16.32;;;10.25;;
47481;SDS011;33219;47.410;9.730;2023-04-19T05:32:44;16.55;;;10.50;;
47481;SDS011;33219;47.410;9.730;2023-04-19T05:35:19;17.05;;;11.48;;
47481;SDS011;33219;47.410;9.730;2023-04-19T05:37:53;20.02;;;11.53;;
47481;SDS011;33219;47.410;9.730;2023-04-19T05:40:47;18.62;;;10.88;;
47481;SDS011;33219;47.410;9.730;2023-04-19T05:52:15;17.27;;;11.30;;
47481;SDS011;33219;47.410;9.730;2023-04-19T05:54:44;16.95;;;10.82;;
47481;SDS011;33219;47.410;9.730;2023-04-19T05:57:15;18.73;;;11.25;;
47481;SDS011;33219;47.410;9.730;2023-04-19T05:59:43;16.80;;;10.48;;
47481;SDS011;33219;47.410;9.730;2023-04-19T06:02:16;17.48;;;10.45;;
47481;SDS011;33219;47.410;9.730;2023-04-19T06:04:49;14.55;;;9.35;;
47481;SDS011;33219;47.410;9.730;2023-04-19T06:09:51;16.65;;;10.35;;
47481;SDS011;33219;47.410;9.730;2023-04-19T06:12:40;14.93;;;10.23;;
47481;SDS011;33219;47.410;9.730;2023-04-19T06:17:57;17.90;;;11.10;;
47481;SDS011;33219;47.410;9.730;2023-04-19T06:23:06;16.65;;;11.25;;
47481;SDS011;33219;47.410;9.730;2023-04-19T06:25:38;16.67;;;11.25;;
47481;SDS011;33219;47.410;9.730;2023-04-19T06:28:10;17.55;;;11.43;;
47481;SDS011;33219;47.410;9.730;2023-04-19T06:30:40;18.77;;;12.30;;
47481;SDS011;33219;47.410;9.730;2023-04-19T06:33:11;17.35;;;10.82;;
47481;SDS011;33219;47.410;9.730;2023-04-19T06:35:44;17.15;;;11.08;;
47481;SDS011;33219;47.410;9.730;2023-04-19T06:38:14;16.30;;;10.68;;
47481;SDS011;33219;47.410;9.730;2023-04-19T06:41:04;15.70;;;10.45;;
47481;SDS011;33219;47.410;9.730;2023-04-19T06:43:38;16.05;;;10.45;;
47481;SDS011;33219;47.410;9.730;2023-04-19T06:46:16;15.72;;;10.95;;
47481;SDS011;33219;47.410;9.730;2023-04-19T06:48:55;18.73;;;11.12;;
47481;SDS011;33219;47.410;9.730;2023-04-19T06:57:39;11.85;;;8.28;;
47481;SDS011;33219;47.410;9.730;2023-04-19T07:00:23;17.60;;;11.83;;
47481;SDS011;33219;47.410;9.730;2023-04-19T07:02:59;15.90;;;10.38;;
47481;SDS011;33219;47.410;9.730;2023-04-19T07:08:33;15.80;;;10.53;;
47481;SDS011;33219;47.410;9.730;2023-04-19T07:16:40;15.90;;;10.65;;
47481;SDS011;33219;47.410;9.730;2023-04-19T07:19:40;15.13;;;10.40;;
47481;SDS011;33219;47.410;9.730;2023-04-19T07:25:32;14.70;;;9.93;;
47481;SDS011;33219;47.410;9.730;2023-04-19T07:28:23;13.30;;;9.45;;
47481;SDS011;33219;47.410;9.730;2023-04-19T07:31:36;13.53;;;9.88;;
47481;SDS011;33219;47.410;9.730;2023-04-19T07:34:07;13.68;;;9.40;;
47481;SDS011;33219;47.410;9.730;2023-04-19T07:36:48;12.98;;;9.15;;
47481;SDS011;33219;47.410;9.730;2023-04-19T07:39:30;14.40;;;9.60;;
47481;SDS011;33219;47.410;9.730;2023-04-19T07:42:16;15.55;;;10.00;;
47481;SDS011;33219;47.410;9.730;2023-04-19T07:44:54;14.83;;;9.45;;
47481;SDS011;33219;47.410;9.730;2023-04-19T07:47:28;15.35;;;9.93;;
47481;SDS011;33219;47.410;9.730;2023-04-19T07:50:02;14.10;;;9.38;;
47481;SDS011;33219;47.410;9.730;2023-04-19T07:52:39;13.95;;;10.40;;
47481;SDS011;33219;47.410;9.730;2023-04-19T07:55:16;14.80;;;9.85;;
47481;SDS011;33219;47.410;9.730;2023-04-19T07:57:50;13.28;;;8.88;;
47481;SDS011;33219;47.410;9.730;2023-04-19T08:00:25;12.63;;;8.80;;
47481;SDS011;33219;47.410;9.730;2023-04-19T08:03:00;13.38;;;9.38;;
47481;SDS011;33219;47.410;9.730;2023-04-19T08:05:36;12.30;;;8.85;;
47481;SDS011;33219;47.410;9.730;2023-04-19T08:08:12;12.80;;;9.15;;
47481;SDS011;33219;47.410;9.730;2023-04-19T08:10:51;13.48;;;9.80;;
47481;SDS011;33219;47.410;9.730;2023-04-19T08:13:33;16.30;;;10.95;;
47481;SDS011;33219;47.410;9.730;2023-04-19T08:16:10;14.35;;;10.53;;
47481;SDS011;33219;47.410;9.730;2023-04-19T08:18:46;15.65;;;10.63;;
47481;SDS011;33219;47.410;9.730;2023-04-19T08:21:20;13.45;;;9.73;;
47481;SDS011;33219;47.410;9.730;2023-04-19T08:23:58;13.60;;;9.18;;
47481;SDS011;33219;47.410;9.730;2023-04-19T08:26:43;12.43;;;9.20;;
47481;SDS011;33219;47.410;9.730;2023-04-19T08:29:23;13.10;;;9.03;;
47481;SDS011;33219;47.410;9.730;2023-04-19T08:32:04;13.45;;;9.60;;
47481;SDS011;33219;47.410;9.730;2023-04-19T08:38:20;13.08;;;8.73;;
47481;SDS011;33219;47.410;9.730;2023-04-19T08:41:01;12.98;;;8.85;;
47481;SDS011;33219;47.410;9.730;2023-04-19T08:43:36;12.88;;;8.95;;
47481;SDS011;33219;47.410;9.730;2023-04-19T08:46:16;12.95;;;8.80;;
47481;SDS011;33219;47.410;9.730;2023-04-19T08:48:50;15.63;;;9.80;;
47481;SDS011;33219;47.410;9.730;2023-04-19T08:51:27;12.82;;;9.20;;
47481;SDS011;33219;47.410;9.730;2023-04-19T08:54:03;12.33;;;9.13;;
47481;SDS011;33219;47.410;9.730;2023-04-19T08:56:36;11.65;;;8.90;;
47481;SDS011;33219;47.410;9.730;2023-04-19T08:59:13;11.95;;;8.33;;
47481;SDS011;33219;47.410;9.730;2023-04-19T09:01:48;11.80;;;8.85;;
47481;SDS011;33219;47.410;9.730;2023-04-19T09:04:23;13.80;;;9.43;;
47481;SDS011;33219;47.410;9.730;2023-04-19T09:07:06;11.80;;;8.60;;
47481;SDS011;33219;47.410;9.730;2023-04-19T09:09:41;10.98;;;8.55;;
47481;SDS011;33219;47.410;9.730;2023-04-19T09:12:18;12.82;;;8.75;;
47481;SDS011;33219;47.410;9.730;2023-04-19T09:14:51;15.15;;;9.08;;
47481;SDS011;33219;47.410;9.730;2023-04-19T09:17:26;12.95;;;9.55;;
47481;SDS011;33219;47.410;9.730;2023-04-19T09:20:06;14.18;;;9.48;;
47481;SDS011;33219;47.410;9.730;2023-04-19T09:22:36;12.70;;;9.08;;
47481;SDS011;33219;47.410;9.730;2023-04-19T09:25:22;13.40;;;9.63;;
47481;SDS011;33219;47.410;9.730;2023-04-19T09:27:44;12.60;;;8.78;;
47481;SDS011;33219;47.410;9.730;2023-04-19T09:30:20;12.30;;;9.18;;
47481;SDS011;33219;47.410;9.730;2023-04-19T09:32:56;13.68;;;9.93;;
47481;SDS011;33219;47.410;9.730;2023-04-19T09:35:40;13.13;;;9.60;;
47481;SDS011;33219;47.410;9.730;2023-04-19T09:38:24;13.95;;;9.48;;
47481;SDS011;33219;47.410;9.730;2023-04-19T09:41:14;12.10;;;8.35;;
47481;SDS011;33219;47.410;9.730;2023-04-19T09:43:50;11.40;;;7.97;;
47481;SDS011;33219;47.410;9.730;2023-04-19T09:46:32;11.93;;;8.33;;
47481;SDS011;33219;47.410;9.730;2023-04-19T09:49:18;13.53;;;8.70;;
47481;SDS011;33219;47.410;9.730;2023-04-19T09:51:56;12.07;;;8.55;;
47481;SDS011;33219;47.410;9.730;2023-04-19T09:54:37;11.15;;;7.85;;
47481;SDS011;33219;47.410;9.730;2023-04-19T09:57:12;10.88;;;7.83;;
47481;SDS011;33219;47.410;9.730;2023-04-19T09:59:46;11.05;;;7.67;;
47481;SDS011;33219;47.410;9.730;2023-04-19T10:02:22;13.40;;;8.58;;
47481;SDS011;33219;47.410;9.730;2023-04-19T10:04:57;11.18;;;8.23;;
47481;SDS011;33219;47.410;9.730;2023-04-19T10:07:31;11.35;;;8.05;;
47481;SDS011;33219;47.410;9.730;2023-04-19T10:10:05;12.63;;;7.78;;
47481;SDS011;33219;47.410;9.730;2023-04-19T10:12:39;10.70;;;7.90;;
47481;SDS011;33219;47.410;9.730;2023-04-19T10:15:14;11.20;;;8.00;;
47481;SDS011;33219;47.410;9.730;2023-04-19T10:17:51;11.15;;;8.28;;
47481;SDS011;33219;47.410;9.730;2023-04-19T10:20:46;10.43;;;8.13;;
47481;SDS011;33219;47.410;9.730;2023-04-19T10:23:18;10.72;;;7.70;;
47481;SDS011;33219;47.410;9.730;2023-04-19T10:25:57;12.80;;;8.03;;
47481;SDS011;33219;47.410;9.730;2023-04-19T10:28:32;11.65;;;8.38;;
47481;SDS011;33219;47.410;9.730;2023-04-19T10:31:09;11.60;;;8.50;;
47481;SDS011;33219;47.410;9.730;2023-04-19T10:33:43;11.43;;;8.23;;
47481;SDS011;33219;47.410;9.730;2023-04-19T10:36:19;10.63;;;7.75;;
47481;SDS011;33219;47.410;9.730;2023-04-19T10:38:49;12.10;;;8.73;;
47481;SDS011;33219;47.410;9.730;2023-04-19T10:41:18;10.78;;;8.20;;
47481;SDS011;33219;47.410;9.730;2023-04-19T10:43:47;11.12;;;8.48;;
47481;SDS011;33219;47.410;9.730;2023-04-19T10:48:56;11.73;;;8.20;;
47481;SDS011;33219;47.410;9.730;2023-04-19T10:51:26;11.28;;;8.60;;
47481;SDS011;33219;47.410;9.730;2023-04-19T10:54:04;11.18;;;7.72;;
47481;SDS011;33219;47.410;9.730;2023-04-19T10:59:10;11.08;;;7.75;;
47481;SDS011;33219;47.410;9.730;2023-04-19T11:01:40;12.70;;;8.45;;
47481;SDS011;33219;47.410;9.730;2023-04-19T11:04:09;11.00;;;7.95;;
47481;SDS011;33219;47.410;9.730;2023-04-19T11:09:27;11.38;;;8.28;;
47481;SDS011;33219;47.410;9.730;2023-04-19T11:11:59;9.88;;;7.80;;
47481;SDS011;33219;47.410;9.730;2023-04-19T11:14:33;11.68;;;7.72;;
47481;SDS011;33219;47.410;9.730;2023-04-19T11:17:13;11.53;;;7.90;;
47481;SDS011;33219;47.410;9.730;2023-04-19T11:19:54;9.40;;;7.30;;
47481;SDS011;33219;47.410;9.730;2023-04-19T11:22:31;8.65;;;6.00;;
47481;SDS011;33219;47.410;9.730;2023-04-19T11:25:15;11.53;;;7.25;;
47481;SDS011;33219;47.410;9.730;2023-04-19T11:27:48;9.80;;;6.77;;
47481;SDS011;33219;47.410;9.730;2023-04-19T11:30:30;10.70;;;7.95;;
47481;SDS011;33219;47.410;9.730;2023-04-19T11:33:04;9.95;;;6.75;;
47481;SDS011;33219;47.410;9.730;2023-04-19T11:35:33;9.30;;;6.50;;
47481;SDS011;33219;47.410;9.730;2023-04-19T11:38:01;10.60;;;6.40;;
47481;SDS011;33219;47.410;9.730;2023-04-19T11:40:30;9.00;;;7.17;;
47481;SDS011;33219;47.410;9.730;2023-04-19T11:42:58;10.53;;;6.85;;
47481;SDS011;33219;47.410;9.730;2023-04-19T11:45:30;9.43;;;7.47;;
47481;SDS011;33219;47.410;9.730;2023-04-19T11:48:03;10.68;;;7.80;;
47481;SDS011;33219;47.410;9.730;2023-04-19T11:53:17;11.03;;;7.37;;
47481;SDS011;33219;47.410;9.730;2023-04-19T11:56:05;8.65;;;7.10;;
47481;SDS011;33219;47.410;9.730;2023-04-19T11:58:35;9.83;;;7.33;;
47481;SDS011;33219;47.410;9.730;2023-04-19T12:01:10;12.43;;;8.93;;
47481;SDS011;33219;47.410;9.730;2023-04-19T12:03:44;10.72;;;8.05;;
47481;SDS011;33219;47.410;9.730;2023-04-19T12:06:17;12.15;;;8.95;;
47481;SDS011;33219;47.410;9.730;2023-04-19T12:08:47;12.20;;;8.63;;
47481;SDS011;33219;47.410;9.730;2023-04-19T12:11:16;10.55;;;8.08;;
47481;SDS011;33219;47.410;9.730;2023-04-19T12:13:46;12.33;;;8.50;;
47481;SDS011;33219;47.410;9.730;2023-04-19T12:16:15;11.88;;;9.30;;
47481;SDS011;33219;47.410;9.730;2023-04-19T12:18:46;13.28;;;9.68;;
47481;SDS011;33219;47.410;9.730;2023-04-19T12:21:28;13.15;;;9.38;;
47481;SDS011;33219;47.410;9.730;2023-04-19T12:23:59;11.90;;;9.85;;
47481;SDS011;33219;47.410;9.730;2023-04-19T12:26:28;13.83;;;9.25;;
47481;SDS011;33219;47.410;9.730;2023-04-19T12:28:57;13.75;;;9.45;;
47481;SDS011;33219;47.410;9.730;2023-04-19T12:31:26;12.75;;;9.33;;
47481;SDS011;33219;47.410;9.730;2023-04-19T12:33:55;11.85;;;9.38;;
47481;SDS011;33219;47.410;9.730;2023-04-19T12:36:23;13.38;;;9.45;;
47481;SDS011;33219;47.410;9.730;2023-04-19T12:38:52;12.47;;;9.30;;
47481;SDS011;33219;47.410;9.730;2023-04-19T12:41:20;13.30;;;9.68;;
47481;SDS011;33219;47.410;9.730;2023-04-19T12:43:48;10.85;;;8.93;;
47481;SDS011;33219;47.410;9.730;2023-04-19T12:46:17;12.10;;;9.10;;
47481;SDS011;33219;47.410;9.730;2023-04-19T12:48:47;12.98;;;9.95;;
47481;SDS011;33219;47.410;9.730;2023-04-19T12:51:15;15.08;;;10.55;;
47481;SDS011;33219;47.410;9.730;2023-04-19T12:53:52;14.30;;;9.83;;
47481;SDS011;33219;47.410;9.730;2023-04-19T12:56:16;14.00;;;10.68;;
47481;SDS011;33219;47.410;9.730;2023-04-19T12:58:44;12.80;;;9.05;;
47481;SDS011;33219;47.410;9.730;2023-04-19T13:01:11;13.95;;;10.05;;
47481;SDS011;33219;47.410;9.730;2023-04-19T13:03:39;13.88;;;10.38;;
47481;SDS011;33219;47.410;9.730;2023-04-19T13:06:07;12.60;;;9.75;;
47481;SDS011;33219;47.410;9.730;2023-04-19T13:08:37;12.82;;;9.30;;
47481;SDS011;33219;47.410;9.730;2023-04-19T13:11:05;11.78;;;9.23;;
47481;SDS011;33219;47.410;9.730;2023-04-19T13:13:35;11.63;;;8.83;;
47481;SDS011;33219;47.410;9.730;2023-04-19T13:16:04;12.82;;;9.00;;
47481;SDS011;33219;47.410;9.730;2023-04-19T13:18:33;12.55;;;9.28;;
47481;SDS011;33219;47.410;9.730;2023-04-19T13:21:00;12.23;;;8.85;;
47481;SDS011;33219;47.410;9.730;2023-04-19T13:23:28;13.08;;;9.43;;
47481;SDS011;33219;47.410;9.730;2023-04-19T13:25:56;12.68;;;9.25;;
47481;SDS011;33219;47.410;9.730;2023-04-19T13:28:23;13.72;;;9.70;;
47481;SDS011;33219;47.410;9.730;2023-04-19T13:30:51;14.07;;;9.43;;
47481;SDS011;33219;47.410;9.730;2023-04-19T13:33:19;14.70;;;9.80;;
47481;SDS011;33219;47.410;9.730;2023-04-19T13:35:47;11.18;;;8.68;;
47481;SDS011;33219;47.410;9.730;2023-04-19T13:38:14;13.75;;;9.78;;
47481;SDS011;33219;47.410;9.730;2023-04-19T13:40:43;13.30;;;9.35;;
47481;SDS011;33219;47.410;9.730;2023-04-19T13:43:10;12.93;;;9.45;;
47481;SDS011;33219;47.410;9.730;2023-04-19T13:45:38;11.20;;;9.08;;
47481;SDS011;33219;47.410;9.730;2023-04-19T13:48:06;13.13;;;9.20;;
47481;SDS011;33219;47.410;9.730;2023-04-19T13:50:33;14.70;;;10.15;;
47481;SDS011;33219;47.410;9.730;2023-04-19T13:53:01;13.70;;;9.50;;
47481;SDS011;33219;47.410;9.730;2023-04-19T13:55:29;15.30;;;10.38;;
47481;SDS011;33219;47.410;9.730;2023-04-19T13:57:56;14.20;;;9.90;;
47481;SDS011;33219;47.410;9.730;2023-04-19T14:00:24;13.05;;;9.73;;
47481;SDS011;33219;47.410;9.730;2023-04-19T14:02:52;13.08;;;9.58;;
47481;SDS011;33219;47.410;9.730;2023-04-19T14:05:21;13.35;;;9.80;;
47481;SDS011;33219;47.410;9.730;2023-04-19T14:07:49;13.28;;;9.58;;
47481;SDS011;33219;47.410;9.730;2023-04-19T14:10:17;14.00;;;9.78;;
47481;SDS011;33219;47.410;9.730;2023-04-19T14:12:45;15.40;;;10.48;;
47481;SDS011;33219;47.410;9.730;2023-04-19T14:15:14;16.52;;;10.05;;
47481;SDS011;33219;47.410;9.730;2023-04-19T14:17:41;13.38;;;10.28;;
47481;SDS011;33219;47.410;9.730;2023-04-19T14:20:10;12.98;;;9.58;;
47481;SDS011;33219;47.410;9.730;2023-04-19T14:22:38;12.80;;;10.05;;
47481;SDS011;33219;47.410;9.730;2023-04-19T14:25:06;12.60;;;9.73;;
47481;SDS011;33219;47.410;9.730;2023-04-19T14:27:34;13.80;;;9.68;;
47481;SDS011;33219;47.410;9.730;2023-04-19T14:30:03;16.02;;;10.38;;
47481;SDS011;33219;47.410;9.730;2023-04-19T14:32:32;14.30;;;9.73;;
47481;SDS011;33219;47.410;9.730;2023-04-19T14:35:00;14.73;;;10.45;;
47481;SDS011;33219;47.410;9.730;2023-04-19T14:37:28;15.53;;;10.78;;
47481;SDS011;33219;47.410;9.730;2023-04-19T14:39:56;16.07;;;11.63;;
47481;SDS011;33219;47.410;9.730;2023-04-19T14:42:23;15.10;;;10.88;;
47481;SDS011;33219;47.410;9.730;2023-04-19T14:44:51;14.78;;;10.48;;
47481;SDS011;33219;47.410;9.730;2023-04-19T14:47:19;16.12;;;10.82;;
47481;SDS011;33219;47.410;9.730;2023-04-19T14:49:46;15.45;;;11.05;;
47481;SDS011;33219;47.410;9.730;2023-04-19T14:52:14;15.50;;;10.98;;
47481;SDS011;33219;47.410;9.730;2023-04-19T14:54:42;16.52;;;11.50;;
47481;SDS011;33219;47.410;9.730;2023-04-19T14:57:09;15.85;;;11.45;;
47481;SDS011;33219;47.410;9.730;2023-04-19T14:59:38;14.38;;;10.93;;
47481;SDS011;33219;47.410;9.730;2023-04-19T15:02:06;14.53;;;11.05;;
47481;SDS011;33219;47.410;9.730;2023-04-19T15:04:35;15.60;;;11.08;;
47481;SDS011;33219;47.410;9.730;2023-04-19T15:07:03;15.48;;;11.40;;
47481;SDS011;33219;47.410;9.730;2023-04-19T15:09:30;17.20;;;11.73;;
47481;SDS011;33219;47.410;9.730;2023-04-19T15:11:58;17.42;;;11.90;;
47481;SDS011;33219;47.410;9.730;2023-04-19T15:14:26;15.98;;;11.22;;
47481;SDS011;33219;47.410;9.730;2023-04-19T15:16:54;16.15;;;11.12;;
47481;SDS011;33219;47.410;9.730;2023-04-19T15:19:21;17.00;;;12.40;;
47481;SDS011;33219;47.410;9.730;2023-04-19T15:21:49;17.27;;;11.25;;
47481;SDS011;33219;47.410;9.730;2023-04-19T15:24:16;15.90;;;11.35;;
47481;SDS011;33219;47.410;9.730;2023-04-19T15:26:44;17.60;;;12.60;;
47481;SDS011;33219;47.410;9.730;2023-04-19T15:29:11;17.65;;;11.90;;
47481;SDS011;33219;47.410;9.730;2023-04-19T15:31:39;17.50;;;11.28;;
47481;SDS011;33219;47.410;9.730;2023-04-19T15:34:06;17.80;;;11.38;;
47481;SDS011;33219;47.410;9.730;2023-04-19T15:36:34;16.20;;;11.50;;
47481;SDS011;33219;47.410;9.730;2023-04-19T15:39:02;16.52;;;11.53;;
47481;SDS011;33219;47.410;9.730;2023-04-19T15:41:29;19.10;;;11.57;;
47481;SDS011;33219;47.410;9.730;2023-04-19T15:43:57;16.12;;;11.60;;